Strona główna
METAR-TAF:

METAR-TAF

Lotnisko :

Waukegan Regional Airport

Waukegan, Illinois, Stany Zjednoczone

Szerokość geograficzna: 42-25N, Długość geograficzna: 087-52W, wysokość: 222 m

Aktualna obserwacja pogody

Raport powstał 52 minut temu, godzina 07:55 UTC
Wiatr 6 kt od południowy zachód
Temperatura 22°C
Wilgotność 83%
Ciśnienie 1012 hPa
Widzialność: 16.1 km
Mało chmury na wysokości 4200 ft
Przerywane chmury na wysokości 7000 ft
Zachmurzenie całkowite na wysokości 8500 ft

METAR: KUGN 280755Z AUTO 23006KT 10SM FEW042 BKN070 OVC085 22/19 A2988 RMK AO2 SLP105 T02170189

czas: 03:47 (08:47 UTC)


TAF: brakujący

Obserwacja i prognoza pogody dla ponad 4000 lotnisk (raport METAR i TAF).

Dostępne stacje oznaczono żółtymi i czerwonymi punktami na mapie.

Najedź kursorem aby zobaczyć nazwę stacji.

Kliknij aby zobaczyć obserwacje i prognozy pogody.

Aby zmienić mapę: kliknij na zielony przycisk z czarnym krzyżykiem, aby powiększyć; na zielony przycisk z myślnikiem, aby pomniejszyć; na zielone strzałki, aby przejść do map sąsiednich.


METAR-TAF: